createdAt,value
2018-05-23T00:00:01.448Z,1012.57
2018-05-23T00:01:01.442Z,1012.57
2018-05-23T00:02:01.424Z,1012.57
2018-05-23T00:03:01.411Z,1012.56
2018-05-23T00:04:01.413Z,1012.56
2018-05-23T00:05:01.381Z,1012.56
2018-05-23T00:06:01.371Z,1012.56
2018-05-23T00:07:01.360Z,1012.59
2018-05-23T00:08:01.355Z,1012.59
2018-05-23T00:09:01.352Z,1012.54
2018-05-23T00:10:01.322Z,1012.55
2018-05-23T00:11:01.314Z,1012.57
2018-05-23T00:12:01.316Z,1012.53
2018-05-23T00:13:01.288Z,1012.53
2018-05-23T00:14:01.288Z,1012.54
2018-05-23T00:15:01.275Z,1012.49
2018-05-23T00:16:01.258Z,1012.51
2018-05-23T00:17:01.236Z,1012.49
2018-05-23T00:18:01.236Z,1012.50
2018-05-23T00:19:01.206Z,1012.54
2018-05-23T00:20:01.222Z,1012.53
2018-05-23T00:21:01.181Z,1012.53
2018-05-23T00:22:01.172Z,1012.55
2018-05-23T00:23:01.173Z,1012.56
2018-05-23T00:24:01.156Z,1012.58
2018-05-23T00:25:01.131Z,1012.59
2018-05-23T00:26:01.136Z,1012.59
2018-05-23T00:27:01.099Z,1012.58
2018-05-23T00:28:01.089Z,1012.62
2018-05-23T00:29:01.073Z,1012.66
2018-05-23T00:30:01.085Z,1012.66
2018-05-23T00:31:01.050Z,1012.67
2018-05-23T00:32:01.034Z,1012.65
2018-05-23T00:33:01.042Z,1012.68
2018-05-23T00:34:01.094Z,1012.68
2018-05-23T00:35:01.002Z,1012.67
2018-05-23T00:36:00.990Z,1012.67
2018-05-23T00:37:00.977Z,1012.70
2018-05-23T00:38:00.976Z,1012.71
2018-05-23T00:39:00.944Z,1012.70
2018-05-23T00:40:00.939Z,1012.68
2018-05-23T00:41:00.925Z,1012.64
2018-05-23T00:42:00.910Z,1012.69
2018-05-23T00:43:00.907Z,1012.69
2018-05-23T00:44:00.878Z,1012.64
2018-05-23T00:45:00.872Z,1012.69
2018-05-23T00:46:00.872Z,1012.68
2018-05-23T00:47:00.842Z,1012.64
2018-05-23T00:48:00.832Z,1012.67
2018-05-23T00:49:00.815Z,1012.65
2018-05-23T00:50:00.803Z,1012.60
2018-05-23T00:51:00.815Z,1012.62
2018-05-23T00:52:00.775Z,1012.58
2018-05-23T00:53:00.775Z,1012.61
2018-05-23T00:54:00.754Z,1012.64
2018-05-23T00:55:00.763Z,1012.62
2018-05-23T00:56:00.724Z,1012.60
2018-05-23T00:57:00.729Z,1012.62
2018-05-23T00:58:00.704Z,1012.63
2018-05-23T00:59:00.703Z,1012.65
2018-05-23T01:00:00.676Z,1012.64
2018-05-23T01:01:00.662Z,1012.65
2018-05-23T01:02:00.666Z,1012.65
2018-05-23T01:03:00.635Z,1012.68
2018-05-23T01:04:00.620Z,1012.67
2018-05-23T01:05:00.607Z,1012.66
2018-05-23T01:06:00.594Z,1012.67
2018-05-23T01:07:00.582Z,1012.66
2018-05-23T01:08:00.578Z,1012.65
2018-05-23T01:09:00.564Z,1012.65
2018-05-23T01:10:00.545Z,1012.68
2018-05-23T01:11:00.532Z,1012.64
2018-05-23T01:12:00.552Z,1012.70
2018-05-23T01:13:00.519Z,1012.64
2018-05-23T01:14:00.492Z,1012.62
2018-05-23T01:15:00.479Z,1012.67
2018-05-23T01:16:00.465Z,1012.64
2018-05-23T01:17:00.452Z,1012.62
2018-05-23T01:18:00.448Z,1012.63
2018-05-23T01:19:00.438Z,1012.62
2018-05-23T01:20:00.410Z,1012.59
2018-05-23T01:21:00.404Z,1012.62
2018-05-23T01:22:00.385Z,1012.62
2018-05-23T01:23:00.371Z,1012.63
2018-05-23T01:24:00.373Z,1012.67
2018-05-23T01:25:00.346Z,1012.65
2018-05-23T01:26:00.335Z,1012.64
2018-05-23T01:27:00.321Z,1012.67
2018-05-23T01:28:00.310Z,1012.70
2018-05-23T01:29:00.312Z,1012.65
2018-05-23T01:30:00.284Z,1012.66
2018-05-23T01:31:00.266Z,1012.67
2018-05-23T01:32:21.266Z,1012.66
2018-05-23T01:33:00.237Z,1012.65
2018-05-23T01:34:00.228Z,1012.64
2018-05-23T01:35:00.218Z,1012.66
2018-05-23T01:36:00.221Z,1012.64
2018-05-23T01:37:00.187Z,1012.65
2018-05-23T01:38:00.177Z,1012.65
2018-05-23T01:39:00.164Z,1012.60
2018-05-23T01:40:00.154Z,1012.64
2018-05-23T01:41:00.145Z,1012.61
2018-05-23T01:42:00.140Z,1012.61
2018-05-23T01:43:00.126Z,1012.63
2018-05-23T01:44:00.101Z,1012.63
2018-05-23T01:45:00.089Z,1012.59
2018-05-23T01:46:00.094Z,1012.63
2018-05-23T01:47:00.057Z,1012.63
2018-05-23T01:48:00.065Z,1012.62
2018-05-23T01:49:00.051Z,1012.60
2018-05-23T01:50:00.019Z,1012.63
2018-05-23T01:51:00.023Z,1012.63
2018-05-23T01:52:00.000Z,1012.61
2018-05-23T01:52:59.983Z,1012.62
2018-05-23T01:53:59.971Z,1012.58
2018-05-23T01:54:59.956Z,1012.58
2018-05-23T01:55:59.961Z,1012.56
2018-05-23T01:56:59.947Z,1012.55
2018-05-23T01:57:59.920Z,1012.59
2018-05-23T01:58:59.905Z,1012.56
2018-05-23T01:59:59.909Z,1012.53
2018-05-23T02:00:59.881Z,1012.57
2018-05-23T02:01:59.883Z,1012.58
2018-05-23T02:02:59.853Z,1012.58
2018-05-23T02:03:59.847Z,1012.60
2018-05-23T02:04:59.828Z,1012.58
2018-05-23T02:05:59.815Z,1012.60
2018-05-23T02:06:59.823Z,1012.59
2018-05-23T02:07:59.792Z,1012.65
2018-05-23T02:08:59.777Z,1012.67
2018-05-23T02:09:59.758Z,1012.69
2018-05-23T02:10:59.754Z,1012.70
2018-05-23T02:11:59.792Z,1012.74
2018-05-23T02:12:59.743Z,1012.75
2018-05-23T02:13:59.707Z,1012.74
2018-05-23T02:14:59.696Z,1012.75
2018-05-23T02:15:59.682Z,1012.78
2018-05-23T02:16:59.674Z,1012.76
2018-05-23T02:17:59.671Z,1012.76
2018-05-23T02:18:59.639Z,1012.78
2018-05-23T02:19:59.636Z,1012.76
2018-05-23T02:20:59.622Z,1012.79
2018-05-23T02:21:59.607Z,1012.79
2018-05-23T02:22:59.609Z,1012.77
2018-05-23T02:23:59.591Z,1012.78
2018-05-23T02:24:59.565Z,1012.77
2018-05-23T02:25:59.569Z,1012.81
2018-05-23T02:26:59.541Z,1012.80
2018-05-23T02:27:59.529Z,1012.82
2018-05-23T02:28:59.513Z,1012.83
2018-05-23T02:29:59.501Z,1012.81
2018-05-23T02:30:59.504Z,1012.84
2018-05-23T02:31:59.474Z,1012.82
2018-05-23T02:32:59.462Z,1012.83
2018-05-23T02:33:59.449Z,1012.81
2018-05-23T02:34:59.437Z,1012.80
2018-05-23T02:35:59.439Z,1012.82
2018-05-23T02:36:59.424Z,1012.83
2018-05-23T02:37:59.413Z,1012.81
2018-05-23T02:38:59.383Z,1012.82
2018-05-23T02:39:59.373Z,1012.78
2018-05-23T02:40:59.372Z,1012.75
2018-05-23T02:41:59.343Z,1012.76
2018-05-23T02:42:59.332Z,1012.77
2018-05-23T02:43:59.318Z,1012.74
2018-05-23T02:44:59.303Z,1012.72
2018-05-23T02:45:59.295Z,1012.73
2018-05-23T02:46:59.323Z,1012.74
2018-05-23T02:47:59.266Z,1012.76
2018-05-23T02:48:59.253Z,1012.76
2018-05-23T02:49:59.238Z,1012.74
2018-05-23T02:50:59.225Z,1012.75
2018-05-23T02:51:59.230Z,1012.77
2018-05-23T02:52:59.198Z,1012.78
2018-05-23T02:53:59.187Z,1012.79
2018-05-23T02:54:59.187Z,1012.80
2018-05-23T02:55:59.178Z,1012.79
2018-05-23T02:56:59.151Z,1012.80
2018-05-23T02:57:59.136Z,1012.83
2018-05-23T02:58:59.116Z,1012.83
2018-05-23T02:59:59.107Z,1012.79
2018-05-23T03:00:59.111Z,1012.81
2018-05-23T03:02:00.351Z,1012.78
2018-05-23T03:02:59.223Z,1012.83
2018-05-23T03:03:59.056Z,1012.82
2018-05-23T03:04:59.043Z,1012.82
2018-05-23T03:05:59.032Z,1012.82
2018-05-23T03:06:59.038Z,1012.83
2018-05-23T03:07:59.005Z,1012.81
2018-05-23T03:08:58.993Z,1012.79
2018-05-23T03:09:58.996Z,1012.74
2018-05-23T03:10:58.963Z,1012.76
2018-05-23T03:11:58.980Z,1012.77
2018-05-23T03:12:58.939Z,1012.79
2018-05-23T03:13:58.926Z,1012.78
2018-05-23T03:14:58.914Z,1012.77
2018-05-23T03:15:58.913Z,1012.77
2018-05-23T03:16:58.883Z,1012.79
2018-05-23T03:17:58.904Z,1012.82
2018-05-23T03:18:58.857Z,1012.83
2018-05-23T03:19:58.849Z,1012.85
2018-05-23T03:20:58.831Z,1012.87
2018-05-23T03:21:58.835Z,1012.84
2018-05-23T03:22:58.800Z,1012.80
2018-05-23T03:23:58.809Z,1012.87
2018-05-23T03:24:58.781Z,1012.89
2018-05-23T03:25:58.770Z,1012.88
2018-05-23T03:26:58.763Z,1012.89
2018-05-23T03:27:58.740Z,1012.88
2018-05-23T03:28:58.745Z,1012.87
2018-05-23T03:29:58.708Z,1012.91
2018-05-23T03:30:58.699Z,1012.89
2018-05-23T03:31:58.687Z,1012.94
2018-05-23T03:32:58.672Z,1012.93
2018-05-23T03:33:58.663Z,1012.95
2018-05-23T03:34:58.662Z,1012.97
2018-05-23T03:35:58.632Z,1012.98
2018-05-23T03:36:58.618Z,1012.99
2018-05-23T03:37:58.606Z,1013.00
2018-05-23T03:38:58.594Z,1012.99
2018-05-23T03:39:58.596Z,1012.99
2018-05-23T03:40:58.561Z,1013.00
2018-05-23T03:41:58.549Z,1013.03
2018-05-23T03:42:58.541Z,1013.01
2018-05-23T03:43:58.531Z,1013.02
2018-05-23T03:44:58.509Z,1013.06
2018-05-23T03:45:58.514Z,1013.03
2018-05-23T03:46:58.485Z,1013.06
2018-05-23T03:47:58.474Z,1013.06
2018-05-23T03:48:58.459Z,1013.06
2018-05-23T03:49:58.459Z,1013.06
2018-05-23T03:50:58.446Z,1013.11
2018-05-23T03:51:58.426Z,1013.07
2018-05-23T03:52:58.419Z,1013.08
2018-05-23T03:53:58.402Z,1013.10
2018-05-23T03:54:58.378Z,1013.07
2018-05-23T03:55:58.369Z,1013.08
2018-05-23T03:56:58.367Z,1013.10
2018-05-23T03:57:58.341Z,1013.08
2018-05-23T03:58:58.327Z,1013.10
2018-05-23T03:59:58.315Z,1013.11
2018-05-23T04:00:58.342Z,1013.08
2018-05-23T04:01:58.307Z,1013.12
2018-05-23T04:02:58.280Z,1013.12
2018-05-23T04:03:58.274Z,1013.15
2018-05-23T04:04:58.256Z,1013.17
2018-05-23T04:05:58.240Z,1013.17
2018-05-23T04:06:58.243Z,1013.16
2018-05-23T04:07:58.221Z,1013.21
2018-05-23T04:08:58.214Z,1013.22
2018-05-23T04:09:58.184Z,1013.22
2018-05-23T04:10:58.173Z,1013.21
2018-05-23T04:11:58.432Z,1013.24
2018-05-23T04:12:58.147Z,1013.27
2018-05-23T04:13:58.127Z,1013.24
2018-05-23T04:14:58.114Z,1013.24
2018-05-23T04:15:58.098Z,1013.27
2018-05-23T04:16:58.112Z,1013.27
2018-05-23T04:17:58.072Z,1013.27
2018-05-23T04:18:58.062Z,1013.29
2018-05-23T04:19:58.047Z,1013.24
2018-05-23T04:20:58.039Z,1013.32
2018-05-23T04:21:58.023Z,1013.29
2018-05-23T04:22:58.026Z,1013.30
2018-05-23T04:23:57.996Z,1013.28
2018-05-23T04:24:58.130Z,1013.32
2018-05-23T04:25:57.968Z,1013.29
2018-05-23T04:26:57.955Z,1013.30
2018-05-23T04:27:57.943Z,1013.25
2018-05-23T04:28:57.930Z,1013.27
2018-05-23T04:29:57.938Z,1013.28
2018-05-23T04:30:57.915Z,1013.28
2018-05-23T04:31:57.893Z,1013.24
2018-05-23T04:32:57.891Z,1013.26
2018-05-23T04:33:57.866Z,1013.25
2018-05-23T04:34:57.870Z,1013.24
2018-05-23T04:35:57.848Z,1013.29
2018-05-23T04:36:57.826Z,1013.27
2018-05-23T04:37:57.818Z,1013.31
2018-05-23T04:38:57.799Z,1013.32
2018-05-23T04:39:57.800Z,1013.37
2018-05-23T04:40:57.773Z,1013.37
2018-05-23T04:41:57.764Z,1013.39
2018-05-23T04:42:57.746Z,1013.40
2018-05-23T04:43:57.748Z,1013.39
2018-05-23T04:44:57.723Z,1013.42
2018-05-23T04:45:57.710Z,1013.45
2018-05-23T04:46:57.698Z,1013.44
2018-05-23T04:48:03.949Z,1013.46
2018-05-23T04:48:57.688Z,1013.44
2018-05-23T04:49:57.667Z,1013.46
2018-05-23T04:50:57.643Z,1013.48
2018-05-23T04:51:57.629Z,1013.48
2018-05-23T04:52:57.617Z,1013.50
2018-05-23T04:53:57.601Z,1013.50
2018-05-23T04:54:57.612Z,1013.51
2018-05-23T04:55:57.579Z,1013.56
2018-05-23T04:56:57.568Z,1013.59
2018-05-23T04:57:57.554Z,1013.60
2018-05-23T04:58:57.536Z,1013.63
2018-05-23T04:59:57.539Z,1013.66
2018-05-23T05:00:57.517Z,1013.66
2018-05-23T05:01:57.503Z,1013.68
2018-05-23T05:02:57.493Z,1013.73
2018-05-23T05:03:57.479Z,1013.73
2018-05-23T05:04:57.479Z,1013.72
2018-05-23T05:06:34.597Z,1013.74
2018-05-23T05:06:57.457Z,1013.77
2018-05-23T05:07:57.431Z,1013.80
2018-05-23T05:08:57.424Z,1013.81
2018-05-23T05:09:57.404Z,1013.81
2018-05-23T05:10:57.389Z,1013.84
2018-05-23T05:11:57.377Z,1013.88
2018-05-23T05:12:57.360Z,1013.85
2018-05-23T05:13:57.349Z,1013.89
2018-05-23T05:14:57.349Z,1013.89
2018-05-23T05:15:57.328Z,1013.91
2018-05-23T05:16:57.326Z,1013.94
2018-05-23T05:17:57.297Z,1013.93
2018-05-23T05:18:57.284Z,1013.94
2018-05-23T05:19:57.282Z,1013.93
2018-05-23T05:20:57.258Z,1013.97
2018-05-23T05:21:57.247Z,1013.96
2018-05-23T05:22:57.228Z,1013.99
2018-05-23T05:23:57.222Z,1014.01
2018-05-23T05:25:00.007Z,1013.99
2018-05-23T05:25:57.210Z,1014.04
2018-05-23T05:26:57.496Z,1014.06
2018-05-23T05:27:57.166Z,1014.05
2018-05-23T05:28:57.168Z,1014.12
2018-05-23T05:29:57.147Z,1014.08
2018-05-23T05:30:57.132Z,1014.12
2018-05-23T05:31:57.129Z,1014.12
2018-05-23T05:32:57.122Z,1014.14
2018-05-23T05:33:57.110Z,1014.17
2018-05-23T05:34:57.081Z,1014.14
2018-05-23T05:35:57.063Z,1014.18
2018-05-23T05:36:57.068Z,1014.19
2018-05-23T05:37:57.093Z,1014.27
2018-05-23T05:38:57.032Z,1014.23
2018-05-23T05:39:57.016Z,1014.27
2018-05-23T05:40:57.011Z,1014.25
2018-05-23T05:41:56.991Z,1014.26
2018-05-23T05:42:56.971Z,1014.25
2018-05-23T05:43:57.000Z,1014.27
2018-05-23T05:44:56.954Z,1014.28
2018-05-23T05:45:56.941Z,1014.27
2018-05-23T05:46:56.998Z,1014.32
2018-05-23T05:47:56.914Z,1014.30
2018-05-23T05:48:56.903Z,1014.32
2018-05-23T05:49:56.903Z,1014.28
2018-05-23T05:50:56.896Z,1014.31
2018-05-23T05:51:56.864Z,1014.27
2018-05-23T05:52:56.864Z,1014.30
2018-05-23T05:53:56.838Z,1014.28
2018-05-23T05:54:56.834Z,1014.27
2018-05-23T05:55:56.813Z,1014.28
2018-05-23T05:56:56.796Z,1014.35
2018-05-23T05:57:56.805Z,1014.33
2018-05-23T05:58:56.778Z,1014.30
2018-05-23T05:59:56.777Z,1014.33
2018-05-23T06:00:56.756Z,1014.35
2018-05-23T06:01:56.784Z,1014.40
2018-05-23T06:02:56.722Z,1014.39
2018-05-23T06:03:56.722Z,1014.40
2018-05-23T06:04:56.730Z,1014.43
2018-05-23T06:05:56.713Z,1014.41
2018-05-23T06:06:56.668Z,1014.44
2018-05-23T06:07:56.662Z,1014.46
2018-05-23T06:08:56.655Z,1014.49
2018-05-23T06:09:56.680Z,1014.52
2018-05-23T06:10:56.624Z,1014.57
2018-05-23T06:11:56.612Z,1014.61
2018-05-23T06:12:56.607Z,1014.61
2018-05-23T06:13:56.587Z,1014.67
2018-05-23T06:14:56.573Z,1014.68
2018-05-23T06:15:56.577Z,1014.70
2018-05-23T06:16:56.569Z,1014.71
2018-05-23T06:17:56.532Z,1014.73
2018-05-23T06:18:56.524Z,1014.75
2018-05-23T06:19:56.515Z,1014.78
2018-05-23T06:20:56.522Z,1014.76
2018-05-23T06:21:56.482Z,1014.76
2018-05-23T06:22:56.476Z,1014.80
2018-05-23T06:23:56.477Z,1014.80
2018-05-23T06:24:56.456Z,1014.79
2018-05-23T06:25:56.484Z,1014.81
2018-05-23T06:26:56.448Z,1014.87
2018-05-23T06:27:56.449Z,1014.83
2018-05-23T06:28:56.402Z,1014.82
2018-05-23T06:29:56.387Z,1014.84
2018-05-23T06:30:56.376Z,1014.85
2018-05-23T06:31:56.366Z,1014.84
2018-05-23T06:32:56.370Z,1014.82
2018-05-23T06:33:56.341Z,1014.76
2018-05-23T06:34:56.325Z,1014.80
2018-05-23T06:35:56.320Z,1014.81
2018-05-23T06:36:56.340Z,1014.81
2018-05-23T06:37:56.292Z,1014.78
2018-05-23T06:38:56.271Z,1014.82
2018-05-23T06:39:56.273Z,1014.82
2018-05-23T06:40:56.252Z,1014.84
2018-05-23T06:41:56.246Z,1014.83
2018-05-23T06:42:56.249Z,1014.82
2018-05-23T06:43:56.238Z,1014.83
2018-05-23T06:44:56.207Z,1014.82
2018-05-23T06:45:56.201Z,1014.86
2018-05-23T06:46:56.203Z,1014.84
2018-05-23T06:47:56.166Z,1014.84
2018-05-23T06:48:56.165Z,1014.84
2018-05-23T06:49:56.204Z,1014.85
2018-05-23T06:50:56.132Z,1014.88
2018-05-23T06:51:56.120Z,1014.89
2018-05-23T06:52:56.127Z,1014.87
2018-05-23T06:53:56.103Z,1014.89
2018-05-23T06:54:56.096Z,1014.90
2018-05-23T06:55:56.069Z,1014.92
2018-05-23T06:56:56.054Z,1014.93
2018-05-23T06:57:56.044Z,1014.96
2018-05-23T06:58:56.062Z,1014.96
2018-05-23T06:59:56.027Z,1014.97
2018-05-23T07:00:56.031Z,1015.00
2018-05-23T07:01:56.022Z,1014.98
2018-05-23T07:02:55.998Z,1015.00
2018-05-23T07:03:55.976Z,1015.01
2018-05-23T07:04:55.971Z,1015.03
2018-05-23T07:05:56.046Z,1014.99
2018-05-23T07:06:55.949Z,1015.05
2018-05-23T07:07:55.928Z,1015.08
2018-05-23T07:08:55.919Z,1015.10
2018-05-23T07:09:55.908Z,1015.04
2018-05-23T07:10:55.908Z,1015.06
2018-05-23T07:11:55.882Z,1015.06
2018-05-23T07:12:55.870Z,1015.05
2018-05-23T07:13:55.865Z,1015.10
2018-05-23T07:14:55.844Z,1015.13
2018-05-23T07:15:55.880Z,1015.14
2018-05-23T07:16:55.835Z,1015.13
2018-05-23T07:17:55.897Z,1015.12
2018-05-23T07:18:55.802Z,1015.16
2018-05-23T07:19:55.795Z,1015.18
2018-05-23T07:20:55.795Z,1015.15
2018-05-23T07:21:55.803Z,1015.18
2018-05-23T07:22:55.760Z,1015.17
2018-05-23T07:23:55.784Z,1015.22
2018-05-23T07:24:55.748Z,1015.25
2018-05-23T07:25:55.817Z,1015.24
2018-05-23T07:26:55.715Z,1015.23
2018-05-23T07:27:55.713Z,1015.25
2018-05-23T07:28:55.689Z,1015.28
2018-05-23T07:29:55.700Z,1015.30
2018-05-23T07:30:55.668Z,1015.28
2018-05-23T07:31:55.661Z,1015.28
2018-05-23T07:32:55.649Z,1015.30
2018-05-23T07:33:55.639Z,1015.34
2018-05-23T07:34:55.659Z,1015.36
2018-05-23T07:35:55.614Z,1015.36
2018-05-23T07:36:55.624Z,1015.35
2018-05-23T07:37:55.596Z,1015.38
2018-05-23T07:38:55.589Z,1015.39
2018-05-23T07:39:55.587Z,1015.36
2018-05-23T07:40:55.562Z,1015.35
2018-05-23T07:41:55.548Z,1015.33
2018-05-23T07:42:55.564Z,1015.34
2018-05-23T07:43:55.543Z,1015.29
2018-05-23T07:44:55.515Z,1015.28
2018-05-23T07:45:55.566Z,1015.31
2018-05-23T07:46:55.492Z,1015.31
2018-05-23T07:47:55.502Z,1015.29
2018-05-23T07:48:55.491Z,1015.31
2018-05-23T07:49:55.473Z,1015.32
2018-05-23T07:50:55.458Z,1015.33
2018-05-23T07:51:55.443Z,1015.32
2018-05-23T07:52:55.455Z,1015.34
2018-05-23T07:53:55.425Z,1015.32
2018-05-23T07:54:55.458Z,1015.31
2018-05-23T07:55:55.406Z,1015.30
2018-05-23T07:56:55.398Z,1015.28
2018-05-23T07:57:55.404Z,1015.28
2018-05-23T07:58:55.401Z,1015.27
2018-05-23T07:59:55.365Z,1015.31
2018-05-23T08:00:55.355Z,1015.29
2018-05-23T08:01:55.342Z,1015.30
2018-05-23T08:02:55.334Z,1015.23
2018-05-23T08:03:55.340Z,1015.32
2018-05-23T08:04:55.337Z,1015.30
2018-05-23T08:05:55.308Z,1015.33
2018-05-23T08:06:55.293Z,1015.31
2018-05-23T08:07:55.318Z,1015.33
2018-05-23T08:08:55.467Z,1015.32
2018-05-23T08:09:55.286Z,1015.36
2018-05-23T08:10:55.279Z,1015.34
2018-05-23T08:11:55.251Z,1015.37
2018-05-23T08:12:55.257Z,1015.33
2018-05-23T08:13:55.231Z,1015.38
2018-05-23T08:14:55.223Z,1015.36
2018-05-23T08:15:55.226Z,1015.40
2018-05-23T08:16:55.213Z,1015.43
2018-05-23T08:17:55.194Z,1015.43
2018-05-23T08:18:55.186Z,1015.44
2018-05-23T08:19:55.170Z,1015.47
2018-05-23T08:20:55.188Z,1015.47
2018-05-23T08:21:55.153Z,1015.44
2018-05-23T08:22:55.195Z,1015.48
2018-05-23T08:23:55.131Z,1015.49
2018-05-23T08:24:55.128Z,1015.49
2018-05-23T08:25:55.119Z,1015.50
2018-05-23T08:26:55.140Z,1015.54
2018-05-23T08:27:55.096Z,1015.52
2018-05-23T08:28:55.096Z,1015.51
2018-05-23T08:29:55.101Z,1015.51
2018-05-23T08:30:55.074Z,1015.54
2018-05-23T08:31:55.225Z,1015.51
2018-05-23T08:32:55.068Z,1015.53
2018-05-23T08:33:55.051Z,1015.54
2018-05-23T08:34:55.042Z,1015.55
2018-05-23T08:35:55.030Z,1015.58
2018-05-23T08:36:55.037Z,1015.58
2018-05-23T08:37:55.026Z,1015.59
2018-05-23T08:38:55.008Z,1015.61
2018-05-23T08:39:54.998Z,1015.59
2018-05-23T08:40:55.000Z,1015.57
2018-05-23T08:41:54.975Z,1015.58
2018-05-23T08:42:54.969Z,1015.56
2018-05-23T08:43:54.988Z,1015.59
2018-05-23T08:44:55.003Z,1015.60
2018-05-23T08:45:54.985Z,1015.59
2018-05-23T08:46:54.931Z,1015.61
2018-05-23T08:47:54.923Z,1015.62
2018-05-23T08:48:54.929Z,1015.60
2018-05-23T08:49:54.909Z,1015.62
2018-05-23T08:50:54.894Z,1015.61
2018-05-23T08:51:54.882Z,1015.63
2018-05-23T08:52:54.891Z,1015.61
2018-05-23T08:53:56.925Z,1015.63
2018-05-23T08:54:54.878Z,1015.68
2018-05-23T08:55:54.873Z,1015.71
2018-05-23T08:56:54.843Z,1015.70
2018-05-23T08:57:54.834Z,1015.71
2018-05-23T08:58:54.829Z,1015.71
2018-05-23T08:59:54.826Z,1015.73
2018-05-23T09:00:54.820Z,1015.77
2018-05-23T09:01:57.064Z,1015.76
2018-05-23T09:02:54.808Z,1015.77
2018-05-23T09:03:54.780Z,1015.76
2018-05-23T09:04:54.771Z,1015.77
2018-05-23T09:05:54.765Z,1015.81
2018-05-23T09:06:54.841Z,1015.79
2018-05-23T09:07:54.746Z,1015.79
2018-05-23T09:08:54.739Z,1015.77
2018-05-23T09:09:54.743Z,1015.81
2018-05-23T09:10:54.727Z,1015.82
2018-05-23T09:11:54.738Z,1015.80
2018-05-23T09:12:54.708Z,1015.81
2018-05-23T09:13:54.696Z,1015.77
2018-05-23T09:14:54.692Z,1015.77
2018-05-23T09:15:54.683Z,1015.81
2018-05-23T09:16:54.672Z,1015.83
2018-05-23T09:17:54.687Z,1015.86
2018-05-23T09:18:54.656Z,1015.86
2018-05-23T09:19:54.650Z,1015.87
2018-05-23T09:20:54.658Z,1015.97
2018-05-23T09:21:54.632Z,1015.91
2018-05-23T09:22:54.655Z,1015.89
2018-05-23T09:23:54.631Z,1015.94
2018-05-23T09:24:54.619Z,1015.91
2018-05-23T09:25:54.618Z,1015.93
2018-05-23T09:26:54.590Z,1015.98
2018-05-23T09:27:54.600Z,1016.05
2018-05-23T09:28:54.574Z,1016.04
2018-05-23T09:29:54.587Z,1016.10
2018-05-23T09:30:54.575Z,1016.03
2018-05-23T09:31:54.558Z,1016.05
2018-05-23T09:32:54.567Z,1016.02
2018-05-23T09:33:54.549Z,1016.02
2018-05-23T09:34:54.544Z,1016.06
2018-05-23T09:35:54.533Z,1016.10
2018-05-23T09:36:54.530Z,1016.04
2018-05-23T09:37:54.529Z,1016.01
2018-05-23T09:38:54.504Z,1016.06
2018-05-23T09:39:54.494Z,1016.08
2018-05-23T09:40:54.485Z,1016.07
2018-05-23T09:41:54.483Z,1016.06
2018-05-23T09:42:54.490Z,1016.05
2018-05-23T09:43:54.481Z,1016.06
2018-05-23T09:44:54.460Z,1016.07
2018-05-23T09:45:54.450Z,1016.10
2018-05-23T09:46:54.449Z,1016.09
2018-05-23T09:47:54.456Z,1016.06
2018-05-23T09:48:54.437Z,1016.05
2018-05-23T09:49:54.430Z,1016.07
2018-05-23T09:50:54.424Z,1016.09
2018-05-23T09:51:54.431Z,1016.09
2018-05-23T09:52:54.421Z,1016.07
2018-05-23T09:53:54.419Z,1016.08
2018-05-23T09:54:54.409Z,1016.12
2018-05-23T09:55:54.390Z,1016.10
2018-05-23T09:56:54.383Z,1016.16
2018-05-23T09:57:54.377Z,1016.22
2018-05-23T09:58:54.369Z,1016.15
2018-05-23T09:59:54.381Z,1016.18
2018-05-23T10:00:54.363Z,1016.10
2018-05-23T10:01:54.346Z,1016.12
2018-05-23T10:02:54.370Z,1016.12
2018-05-23T10:03:54.332Z,1016.13
2018-05-23T10:04:54.340Z,1016.12
2018-05-23T10:05:54.321Z,1016.15
2018-05-23T10:06:54.317Z,1016.18
2018-05-23T10:07:54.307Z,1016.28
2018-05-23T10:08:54.324Z,1016.38
2018-05-23T10:09:54.296Z,1016.42
2018-05-23T10:10:54.285Z,1016.55
2018-05-23T10:11:54.292Z,1016.53
2018-05-23T10:12:56.434Z,1016.57
2018-05-23T10:13:57.947Z,1016.52
2018-05-23T10:14:54.312Z,1016.43
2018-05-23T10:15:54.269Z,1016.50
2018-05-23T10:16:54.266Z,1016.51
2018-05-23T10:17:54.249Z,1016.33
2018-05-23T10:18:54.244Z,1016.39
2018-05-23T10:19:54.262Z,1016.41
2018-05-23T10:20:54.248Z,1016.43
2018-05-23T10:21:54.236Z,1016.26
2018-05-23T10:22:54.232Z,1016.46
2018-05-23T10:23:54.235Z,1016.47
2018-05-23T10:24:54.244Z,1016.50
2018-05-23T10:25:54.238Z,1016.57
2018-05-23T10:26:54.231Z,1016.58
2018-05-23T10:27:54.217Z,1016.31
2018-05-23T10:28:54.211Z,1016.26
2018-05-23T10:29:54.243Z,1016.25
2018-05-23T10:30:54.212Z,1016.51
2018-05-23T10:32:02.081Z,1016.54
2018-05-23T10:32:54.221Z,1016.51
2018-05-23T10:33:54.215Z,1016.40
2018-05-23T10:34:54.210Z,1016.33
2018-05-23T10:35:54.211Z,1016.43
2018-05-23T10:36:54.201Z,1016.42
2018-05-23T10:37:54.195Z,1016.37
2018-05-23T10:38:54.197Z,1016.42
2018-05-23T10:39:54.185Z,1016.35
2018-05-23T10:40:54.208Z,1016.44
2018-05-23T10:41:54.200Z,1016.39
2018-05-23T10:42:54.188Z,1016.35
2018-05-23T10:43:54.184Z,1016.40
2018-05-23T10:44:54.176Z,1016.42
2018-05-23T10:45:54.177Z,1016.44
2018-05-23T10:46:54.193Z,1016.40
2018-05-23T10:47:54.178Z,1016.47
2018-05-23T10:48:54.168Z,1016.30
2018-05-23T10:49:54.172Z,1016.36
2018-05-23T10:50:54.180Z,1016.51
2018-05-23T10:51:54.189Z,1016.50
2018-05-23T10:52:54.163Z,1016.51
2018-05-23T10:53:54.156Z,1016.51
2018-05-23T10:54:54.155Z,1016.37
2018-05-23T10:55:54.152Z,1016.42
2018-05-23T10:56:54.178Z,1016.53
2018-05-23T10:57:54.155Z,1016.55
2018-05-23T10:58:54.151Z,1016.56
2018-05-23T10:59:54.141Z,1016.39
2018-05-23T11:00:54.141Z,1016.39
2018-05-23T11:01:54.155Z,1016.43
2018-05-23T11:02:54.159Z,1016.40
2018-05-23T11:03:54.137Z,1016.41
2018-05-23T11:04:54.133Z,1016.44
2018-05-23T11:05:54.197Z,1016.40
2018-05-23T11:06:54.121Z,1016.43
2018-05-23T11:07:54.141Z,1016.38
2018-05-23T11:08:54.117Z,1016.45
2018-05-23T11:09:54.112Z,1016.46
2018-05-23T11:10:54.303Z,1016.49
2018-05-23T11:11:54.101Z,1016.50
2018-05-23T11:12:54.113Z,1016.57
2018-05-23T11:13:54.111Z,1016.68
2018-05-23T11:14:54.195Z,1016.63
2018-05-23T11:15:54.084Z,1016.60
2018-05-23T11:16:54.997Z,1016.67
2018-05-23T11:17:54.076Z,1016.62
2018-05-23T11:18:54.141Z,1016.71
2018-05-23T11:19:54.073Z,1016.62
2018-05-23T11:20:54.071Z,1016.74
2018-05-23T11:21:54.056Z,1016.61
2018-05-23T11:22:54.049Z,1016.66
2018-05-23T11:23:54.051Z,1016.71
2018-05-23T11:24:54.060Z,1016.79
2018-05-23T11:25:54.038Z,1016.78
2018-05-23T11:26:54.038Z,1016.75
2018-05-23T11:27:54.028Z,1016.77
2018-05-23T11:28:54.027Z,1016.85
2018-05-23T11:29:54.028Z,1016.78
2018-05-23T11:30:54.033Z,1016.82
2018-05-23T11:31:54.012Z,1016.81
2018-05-23T11:32:54.014Z,1016.87
2018-05-23T11:33:54.623Z,1016.84
2018-05-23T11:34:54.009Z,1016.97
2018-05-23T11:35:54.017Z,1016.81
2018-05-23T11:36:53.999Z,1016.87
2018-05-23T11:37:53.984Z,1016.83
2018-05-23T11:38:53.983Z,1016.74
2018-05-23T11:39:54.224Z,1016.77
2018-05-23T11:41:14.997Z,1016.75
2018-05-23T11:41:53.981Z,1016.77
2018-05-23T11:42:57.551Z,1016.78
2018-05-23T11:43:53.968Z,1016.78
2018-05-23T11:44:53.965Z,1016.86
2018-05-23T11:45:53.958Z,1016.83
2018-05-23T11:46:53.970Z,1016.74
2018-05-23T11:47:53.964Z,1016.79
2018-05-23T11:48:56.612Z,1016.72
2018-05-23T11:49:57.722Z,1016.70
2018-05-23T11:50:53.942Z,1016.72
2018-05-23T11:51:53.938Z,1016.71
2018-05-23T11:52:53.945Z,1016.69
2018-05-23T11:53:53.923Z,1016.70
2018-05-23T11:54:53.921Z,1016.72
2018-05-23T11:55:53.909Z,1016.72
2018-05-23T11:56:53.905Z,1016.76
2018-05-23T11:57:53.914Z,1016.77
2018-05-23T11:58:53.894Z,1016.71
2018-05-23T11:59:53.886Z,1016.74
2018-05-23T12:00:53.896Z,1016.77
2018-05-23T12:01:53.897Z,1016.74
2018-05-23T12:02:53.894Z,1016.72
2018-05-23T12:03:53.860Z,1016.67
2018-05-23T12:04:53.860Z,1016.71